Time;durP1;ratioP1;P1;durP2;ratioP2;P2;SDS_P1;SDS_P2;PMS_P1;PMS_P2;Temp;Humidity;BMP_temperature;BMP_pressure;BME280_temperature;BME280_humidity;BME280_pressure;Samples;Min_cycle;Max_cycle;Signal;HPM_P1;HPM_P2
2021/06/29 00:01:05;;;;;;;27.85;20.40;;;;;;;23.46;61.48;101149.50;5018838;28;124063;-69
2021/06/29 00:03:33;;;;;;;27.67;20.17;;;;;;;23.47;61.30;101161.16;5016017;28;124263;-69
2021/06/29 00:06:00;;;;;;;31.90;22.33;;;;;;;23.45;61.51;101166.75;5015027;28;120088;-69
2021/06/29 00:08:28;;;;;;;31.02;21.48;;;;;;;23.45;61.46;101169.44;5019680;28;119195;-69
2021/06/29 00:11:07;;;;;;;29.58;21.27;;;;;;;23.44;61.52;101173.13;5022261;28;123947;-69
2021/06/29 00:13:34;;;;;;;25.85;19.88;;;;;;;23.42;61.41;101169.72;5025138;28;124030;-69
2021/06/29 00:16:02;;;;;;;27.48;20.52;;;;;;;23.42;61.50;101169.72;5024251;28;119329;-69
2021/06/29 00:18:29;;;;;;;30.00;20.80;;;;;;;23.41;61.60;101168.00;5028403;28;119622;-69
2021/06/29 00:20:56;;;;;;;28.60;21.88;;;;;;;23.41;61.59;101162.59;5017037;28;124417;-69
2021/06/29 00:23:24;;;;;;;30.67;23.00;;;;;;;23.40;61.53;101160.91;5021328;28;123994;-69
2021/06/29 00:25:51;;;;;;;32.42;23.50;;;;;;;23.39;61.51;101153.78;5026430;28;118230;-69
2021/06/29 00:28:20;;;;;;;32.03;23.55;;;;;;;23.37;61.84;101153.09;5024311;28;119483;-69
2021/06/29 00:30:50;;;;;;;34.35;24.58;;;;;;;23.36;61.79;101151.41;5020738;28;124310;-69
2021/06/29 00:33:18;;;;;;;32.97;23.65;;;;;;;23.34;61.76;101145.28;5023529;28;124571;-69
2021/06/29 00:35:45;;;;;;;34.67;23.58;;;;;;;23.33;61.85;101144.41;5018542;28;119405;-68
2021/06/29 00:38:13;;;;;;;34.28;23.95;;;;;;;23.34;61.92;101150.69;5021137;28;119977;-69
2021/06/29 00:40:40;;;;;;;33.90;23.92;;;;;;;23.33;61.92;101144.41;5021098;28;124378;-69
2021/06/29 00:43:08;;;;;;;35.90;23.95;;;;;;;23.33;62.06;101136.31;5019675;28;123477;-69
2021/06/29 00:45:35;;;;;;;37.70;24.20;;;;;;;23.35;61.98;101141.56;5018373;28;119549;-69
2021/06/29 00:48:02;;;;;;;31.85;23.33;;;;;;;23.35;62.03;101138.88;5023700;28;119334;-68
2021/06/29 00:50:30;;;;;;;34.88;24.15;;;;;;;23.35;62.02;101132.63;5018705;28;124899;-68
2021/06/29 00:52:57;;;;;;;34.25;23.85;;;;;;;23.37;62.02;101138.72;5020515;28;123276;-68
2021/06/29 00:55:24;;;;;;;37.00;25.25;;;;;;;23.34;61.99;101134.47;5020649;28;120369;-68
2021/06/29 00:57:52;;;;;;;34.65;25.30;;;;;;;23.36;62.07;101132.47;5022455;28;118847;-68
2021/06/29 01:00:20;;;;;;;37.05;25.08;;;;;;;23.35;62.22;101130.75;5019868;28;123982;-68
2021/06/29 01:02:47;;;;;;;38.80;25.90;;;;;;;23.35;62.03;101136.16;5018270;28;123917;-69
2021/06/29 01:05:14;;;;;;;38.63;26.30;;;;;;;23.34;62.21;101129.06;5017285;28;120222;-69
2021/06/29 01:07:42;;;;;;;39.22;25.48;;;;;;;23.33;62.30;101132.75;5025688;28;119459;-68
2021/06/29 01:10:09;;;;;;;38.97;25.77;;;;;;;23.33;62.18;101132.75;5022024;28;124269;-68
2021/06/29 01:12:36;;;;;;;42.78;27.80;;;;;;;23.33;62.34;101139.00;5016416;28;122964;-68
2021/06/29 01:15:05;;;;;;;41.95;26.95;;;;;;;23.34;62.28;101134.47;5021898;28;120126;-68
2021/06/29 01:17:33;;;;;;;40.08;26.48;;;;;;;23.34;62.30;101134.47;5015939;28;119127;-68
2021/06/29 01:20:06;;;;;;;48.00;29.00;;;;;;;23.35;62.35;101141.56;5018294;28;123850;-69
2021/06/29 01:22:33;;;;;;;43.08;27.83;;;;;;;23.36;62.44;101147.81;5024420;28;123549;-69
2021/06/29 01:25:01;;;;;;;45.70;28.90;;;;;;;23.36;62.44;101140.59;5024736;28;119529;-69
2021/06/29 01:27:38;;;;;;;43.78;29.05;;;;;;;23.36;62.55;101143.28;5022597;28;119159;-69
2021/06/29 01:32:33;;;;;;;41.78;27.27;;;;;;;23.37;62.15;101144.13;5019368;28;124972;-71
2021/06/29 01:35:06;;;;;;;40.40;27.10;;;;;;;23.37;62.58;101139.56;5020069;28;119554;-71
2021/06/29 01:37:34;;;;;;;46.55;29.67;;;;;;;23.38;62.52;101138.59;5021837;28;117744;-71
2021/06/29 01:40:09;;;;;;;44.75;28.63;;;;;;;23.37;62.46;101128.75;5025029;28;124111;-70
2021/06/29 01:42:36;;;;;;;44.63;27.85;;;;;;;23.38;62.47;101125.06;5021862;28;124630;-70
2021/06/29 01:45:23;;;;;;;43.25;27.73;;;;;;;23.38;62.59;101119.66;5019573;28;97086;-70
2021/06/29 01:47:53;;;;;;;45.83;29.05;;;;;;;23.37;62.71;101117.94;5014993;28;120246;-70
2021/06/29 01:50:21;;;;;;;46.17;29.88;;;;;;;23.38;62.62;101125.06;5020743;28;123835;-71
2021/06/29 01:52:54;;;;;;;47.88;29.65;;;;;;;23.38;62.66;101114.25;5022859;28;123641;-71
2021/06/29 01:55:21;;;;;;;46.08;29.88;;;;;;;23.37;62.69;101104.44;5017506;28;119592;-71
2021/06/29 01:57:50;;;;;;;46.78;30.02;;;;;;;23.39;62.71;101099.72;5026346;28;118895;-70
2021/06/29 02:00:19;;;;;;;45.10;28.65;;;;;;;23.38;62.80;101097.19;5020567;28;124990;-71
2021/06/29 02:02:47;;;;;;;43.30;28.00;;;;;;;23.37;62.65;101099.03;5018439;28;123278;-71
2021/06/29 02:05:15;;;;;;;44.75;28.45;;;;;;;23.35;62.79;101087.50;5016248;28;118355;-71
2021/06/29 02:07:42;;;;;;;47.58;29.48;;;;;;;23.35;62.66;101082.09;5017188;28;119200;-71
2021/06/29 02:10:10;;;;;;;47.03;28.98;;;;;;;23.35;62.74;101076.69;5015105;28;123888;-70
2021/06/29 02:12:38;;;;;;;46.97;30.15;;;;;;;23.32;62.71;101077.84;5014457;28;124417;-70
2021/06/29 02:15:06;;;;;;;44.63;29.00;;;;;;;23.31;62.70;101081.53;5024757;28;119114;-70
2021/06/29 02:17:33;;;;;;;44.13;28.80;;;;;;;23.30;62.87;101078.97;5019870;28;119072;-71
2021/06/29 02:20:01;;;;;;;49.63;31.13;;;;;;;23.30;62.91;101081.69;5016150;28;124239;-70
2021/06/29 02:22:28;;;;;;;45.15;28.95;;;;;;;23.29;62.79;101071.88;5015002;28;124919;-70
2021/06/29 02:24:55;;;;;;;50.17;29.98;;;;;;;23.28;62.93;101070.16;5020025;28;119588;-70
2021/06/29 02:27:23;;;;;;;49.83;30.38;;;;;;;23.27;62.67;101073.88;5009652;28;118062;-71
2021/06/29 02:29:50;;;;;;;41.10;28.10;;;;;;;23.26;63.02;101080.28;5016523;28;124447;-70
2021/06/29 02:32:17;;;;;;;45.95;29.40;;;;;;;23.26;62.93;101082.97;5015379;28;124143;-70
2021/06/29 02:34:44;;;;;;;47.40;29.77;;;;;;;23.26;63.06;101077.56;5023005;28;119203;-70
2021/06/29 02:37:12;;;;;;;44.05;28.70;;;;;;;23.27;62.93;101093.66;5019032;28;119873;-71
2021/06/29 02:39:39;;;;;;;44.65;27.58;;;;;;;23.27;62.93;101084.69;5019666;28;122559;-70
2021/06/29 02:42:07;;;;;;;42.22;27.45;;;;;;;23.26;62.88;101082.97;5024593;28;123792;-70
2021/06/29 02:44:36;;;;;;;39.50;27.02;;;;;;;23.27;62.81;101079.28;5023162;28;119629;-70
2021/06/29 02:47:03;;;;;;;44.83;29.27;;;;;;;23.26;62.92;101083.84;5024258;28;119244;-71
2021/06/29 02:49:31;;;;;;;46.67;29.55;;;;;;;23.25;62.73;101075.88;5022431;28;124599;-71
2021/06/29 02:51:58;;;;;;;45.97;29.00;;;;;;;23.24;62.77;101079.56;5017976;28;124832;-70
2021/06/29 02:54:25;;;;;;;46.22;29.20;;;;;;;23.24;62.84;101068.75;5014914;28;119360;-70
2021/06/29 02:56:52;;;;;;;48.58;29.40;;;;;;;23.23;62.91;101067.06;5018432;28;119104;-71
2021/06/29 02:59:19;;;;;;;48.85;30.50;;;;;;;23.22;63.01;101068.06;5010056;28;124599;-71
2021/06/29 03:01:46;;;;;;;49.38;30.73;;;;;;;23.22;62.94;101057.25;5021618;28;124098;-71
2021/06/29 03:04:18;;;;;;;51.28;31.60;;;;;;;23.21;63.22;101063.66;5037747;22;119616;-69
2021/06/29 03:06:45;;;;;;;46.65;29.60;;;;;;;23.19;62.98;101071.91;5012962;28;119482;-69
2021/06/29 03:09:12;;;;;;;47.97;29.67;;;;;;;23.19;63.03;101076.44;5020126;28;124693;-69
2021/06/29 03:11:40;;;;;;;50.75;29.33;;;;;;;23.18;63.18;101082.88;5005107;28;123279;-70
2021/06/29 03:14:07;;;;;;;49.72;30.30;;;;;;;23.18;63.25;101074.75;5018051;28;119909;-70
2021/06/29 03:16:34;;;;;;;51.03;30.50;;;;;;;23.18;63.29;101080.16;5022780;28;118771;-70
2021/06/29 03:19:02;;;;;;;49.50;31.15;;;;;;;23.17;63.04;101078.44;5015800;28;124777;-70
2021/06/29 03:21:29;;;;;;;49.95;30.98;;;;;;;23.17;63.26;101075.75;5019714;28;124103;-70
2021/06/29 03:23:56;;;;;;;44.13;29.05;;;;;;;23.17;63.20;101070.34;5021954;28;119152;-70
2021/06/29 03:26:23;;;;;;;46.85;29.98;;;;;;;23.18;63.31;101074.75;5020943;28;121915;-70
2021/06/29 03:28:50;;;;;;;48.90;30.13;;;;;;;23.18;63.16;101077.47;5018329;28;124747;-70
2021/06/29 03:31:18;;;;;;;48.38;30.65;;;;;;;23.17;63.40;101083.84;5019898;28;124150;-70
2021/06/29 03:33:45;;;;;;;52.88;31.27;;;;;;;;;;5012937;28;119172;-70
2021/06/29 03:36:12;;;;;;;45.17;29.10;;;;;;;23.19;63.18;101087.25;5014597;28;118120;-69
2021/06/29 03:38:39;;;;;;;46.55;29.83;;;;;;;23.19;63.17;101081.84;5017009;27;123781;-69
2021/06/29 03:41:07;;;;;;;51.70;32.15;;;;;;;23.21;63.22;101079.88;5017315;28;123757;-69
2021/06/29 03:43:37;;;;;;;52.28;32.45;;;;;;;23.19;63.16;101074.63;5017650;28;119750;-69
2021/06/29 03:46:05;;;;;;;54.80;31.98;;;;;;;23.17;63.39;101073.91;5019083;28;117817;-70
2021/06/29 03:48:34;;;;;;;53.90;32.55;;;;;;;23.17;63.38;101073.03;5025011;28;124158;-69
2021/06/29 03:51:02;;;;;;;54.80;32.88;;;;;;;23.18;63.50;101077.47;5017923;28;124955;-69
2021/06/29 03:53:29;;;;;;;55.10;32.50;;;;;;;23.17;63.50;101078.44;5015548;28;119077;-70
2021/06/29 03:55:56;;;;;;;58.40;33.83;;;;;;;23.18;63.49;101074.75;5016247;28;117527;-69
2021/06/29 03:58:23;;;;;;;58.67;34.13;;;;;;;23.17;63.64;101078.44;5022162;28;123958;-69
2021/06/29 04:00:51;;;;;;;52.58;31.27;;;;;;;23.19;63.51;101084.56;5021456;28;123772;-69
2021/06/29 04:03:18;;;;;;;54.22;33.13;;;;;;;23.19;63.73;101087.25;5019620;28;118439;-70
2021/06/29 04:05:45;;;;;;;59.70;34.97;;;;;;;23.20;63.69;101078.16;5018983;28;119287;-69
2021/06/29 04:08:12;;;;;;;53.95;33.72;;;;;;;23.22;63.91;101089.69;5020757;28;123315;-69
2021/06/29 04:10:39;;;;;;;58.53;33.60;;;;;;;23.23;63.96;101089.53;5020593;28;123220;-69
2021/06/29 04:13:06;;;;;;;57.08;32.90;;;;;;;23.26;63.71;101082.97;5017749;28;120254;-69
2021/06/29 04:15:33;;;;;;;56.58;33.50;;;;;;;23.26;63.76;101078.44;5013952;28;119762;-69
2021/06/29 04:18:00;;;;;;;61.75;34.75;;;;;;;23.28;63.88;101075.56;5015184;28;124338;-69
2021/06/29 04:20:27;;;;;;;63.13;35.78;;;;;;;23.27;63.79;101073.88;5012735;28;124099;-69
2021/06/29 04:22:54;;;;;;;60.13;34.88;;;;;;;23.28;63.92;101067.47;5014959;28;119742;-70
2021/06/29 04:25:21;;;;;;;57.70;34.70;;;;;;;23.30;63.98;101073.56;5020478;28;118868;-69
2021/06/29 04:27:48;;;;;;;59.25;35.08;;;;;;;23.31;63.86;101075.28;5016632;28;124246;-69
2021/06/29 04:30:16;;;;;;;61.47;35.13;;;;;;;23.32;63.96;101077.00;5017928;28;123787;-70
2021/06/29 04:32:43;;;;;;;57.78;34.42;;;;;;;23.32;63.86;101077.00;5004387;28;119396;-69
2021/06/29 04:35:10;;;;;;;61.20;36.00;;;;;;;23.33;63.89;101073.28;5021267;28;117653;-69
2021/06/29 04:37:38;;;;;;;62.95;36.60;;;;;;;23.35;63.83;101076.69;5020011;28;123511;-70
2021/06/29 04:40:06;;;;;;;65.55;35.80;;;;;;;23.35;64.03;101071.28;5022955;28;124314;-69
2021/06/29 04:42:33;;;;;;;67.20;37.38;;;;;;;23.35;63.75;101071.28;5017069;28;118325;-69
2021/06/29 04:45:01;;;;;;;62.60;35.97;;;;;;;23.35;64.01;101060.47;5017009;28;120015;-69
2021/06/29 04:47:28;;;;;;;60.47;36.03;;;;;;;23.35;63.90;101065.88;5019597;28;124479;-69
2021/06/29 04:49:56;;;;;;;61.35;35.88;;;;;;;23.36;64.05;101067.59;5018482;28;124277;-69
2021/06/29 04:52:23;;;;;;;60.30;34.60;;;;;;;23.36;63.77;101066.72;5017850;28;118258;-69
2021/06/29 04:54:50;;;;;;;64.05;36.33;;;;;;;23.37;63.98;101063.88;5016060;28;119721;-69
2021/06/29 04:57:17;;;;;;;68.95;37.20;;;;;;;23.38;64.00;101053.94;5013006;28;124005;-70
2021/06/29 04:59:45;;;;;;;63.15;35.50;;;;;;;23.38;63.99;101049.38;5021552;28;123148;-70
2021/06/29 05:02:12;;;;;;;69.18;37.83;;;;;;;23.40;64.11;101052.78;5021342;28;120418;-69
2021/06/29 05:04:39;;;;;;;64.95;37.28;;;;;;;23.39;63.99;101045.66;5020021;28;119984;-69
2021/06/29 05:07:06;;;;;;;68.85;38.40;;;;;;;23.39;64.18;101048.38;5022182;28;124312;-70
2021/06/29 05:09:33;;;;;;;63.30;37.38;;;;;;;23.39;64.13;101045.66;5020713;28;123672;-69
2021/06/29 05:12:00;;;;;;;70.85;38.88;;;;;;;23.39;64.10;101051.06;5024978;28;120929;-69
2021/06/29 05:14:27;;;;;;;73.20;38.45;;;;;;;23.41;64.22;101049.06;5017182;28;117831;-69
2021/06/29 05:16:54;;;;;;;66.40;38.03;;;;;;;23.42;64.28;101045.38;5018963;28;124315;-69
2021/06/29 05:19:22;;;;;;;67.90;39.00;;;;;;;23.43;64.41;101052.50;5016341;28;124573;-70
2021/06/29 05:21:49;;;;;;;66.13;38.67;;;;;;;23.44;64.31;101054.19;5018952;28;119801;-69
2021/06/29 05:24:16;;;;;;;69.18;38.63;;;;;;;23.44;64.14;101059.59;5019821;28;119619;-70
2021/06/29 05:26:44;;;;;;;67.28;38.97;;;;;;;23.45;64.32;101055.03;5017363;28;124657;-69
2021/06/29 05:29:11;;;;;;;67.05;37.90;;;;;;;23.45;64.17;101066.72;5017120;28;123949;-69
2021/06/29 05:31:39;;;;;;;65.55;36.90;;;;;;;23.48;64.43;101074.50;5022712;28;119272;-69
2021/06/29 05:34:06;;;;;;;70.18;39.40;;;;;;;23.50;64.45;101080.63;5018957;28;119129;-69
2021/06/29 05:36:33;;;;;;;70.95;39.00;;;;;;;23.55;64.23;101087.47;4995797;28;123205;-69
2021/06/29 05:39:00;;;;;;;66.57;36.72;;;;;;;23.58;64.30;101092.56;5014439;28;123723;-69
2021/06/29 05:41:27;;;;;;;67.45;38.53;;;;;;;23.59;64.24;101088.88;5014463;28;119255;-69
2021/06/29 05:43:54;;;;;;;69.20;37.85;;;;;;;23.61;64.05;101086.88;5019141;28;118357;-71
2021/06/29 05:46:22;;;;;;;69.28;38.22;;;;;;;23.62;63.98;101088.56;5016413;28;124266;-70
2021/06/29 05:48:51;;;;;;;67.00;38.13;;;;;;;23.62;64.02;101085.84;5024604;28;124193;-69
2021/06/29 05:51:19;;;;;;;69.57;39.58;;;;;;;23.60;64.10;101079.75;5012454;28;120715;-70
2021/06/29 05:53:46;;;;;;;67.93;38.05;;;;;;;23.57;64.17;101080.91;5017430;28;120498;-70
2021/06/29 05:56:14;;;;;;;64.43;38.83;;;;;;;23.57;64.29;101080.06;5010220;28;123437;-70
2021/06/29 05:58:41;;;;;;;70.05;38.95;;;;;;;23.57;64.19;101077.34;5014769;28;125802;-70
2021/06/29 06:01:08;;;;;;;67.90;38.63;;;;;;;23.58;64.08;101076.34;5019609;28;119753;-69
2021/06/29 06:03:36;;;;;;;69.63;39.28;;;;;;;23.58;64.27;101081.75;5019453;28;118249;-70
2021/06/29 06:06:03;;;;;;;68.15;38.88;;;;;;;23.58;64.29;101076.34;5015127;28;124744;-70
2021/06/29 06:08:30;;;;;;;68.68;38.30;;;;;;;23.59;64.30;101078.06;5015552;28;123741;-70
2021/06/29 06:10:57;;;;;;;70.95;39.65;;;;;;;23.59;64.26;101080.75;5010553;28;118994;-70
2021/06/29 06:13:24;;;;;;;73.45;39.53;;;;;;;23.60;64.34;101083.31;5016911;28;119088;-70
2021/06/29 06:15:56;;;;;;;73.07;40.28;;;;;;;23.61;64.35;101081.47;5016294;28;123065;-70
2021/06/29 06:18:23;;;;;;;69.30;37.95;;;;;;;23.61;64.42;101071.47;5022063;28;124170;-71
2021/06/29 06:20:51;;;;;;;76.93;39.75;;;;;;;23.61;64.27;101076.06;5018829;28;118272;-71
2021/06/29 06:23:18;;;;;;;71.93;40.88;;;;;;;23.62;64.25;101080.44;5011245;28;118176;-71
2021/06/29 06:25:45;;;;;;;72.00;39.90;;;;;;;23.62;64.42;101080.44;5014833;28;123220;-71
2021/06/29 06:28:12;;;;;;;74.03;38.90;;;;;;;23.64;64.43;101091.97;5017435;28;123623;-70
2021/06/29 06:30:41;;;;;;;67.78;38.30;;;;;;;23.65;64.35;101083.69;5017388;28;119640;-71
2021/06/29 06:33:08;;;;;;;68.25;37.00;;;;;;;23.66;64.20;101092.69;5016784;28;118740;-71
2021/06/29 06:35:35;;;;;;;64.05;36.78;;;;;;;23.65;64.34;101088.28;5012846;28;123096;-71
2021/06/29 06:38:03;;;;;;;64.63;35.17;;;;;;;23.64;64.39;101086.56;5020121;28;124178;-71
2021/06/29 06:40:30;;;;;;;65.03;36.75;;;;;;;23.66;64.28;101095.41;5004037;28;119248;-71
2021/06/29 06:42:57;;;;;;;66.63;37.03;;;;;;;23.68;64.48;101090.69;5020231;28;119797;-71
2021/06/29 06:45:24;;;;;;;65.40;35.70;;;;;;;23.68;64.35;101088.81;5014660;28;123901;-71
2021/06/29 06:47:52;;;;;;;61.00;35.05;;;;;;;23.72;64.58;101089.38;5015838;28;123784;-71
2021/06/29 06:50:20;;;;;;;63.33;34.55;;;;;;;23.74;64.34;101097.34;5017962;28;119523;-71
2021/06/29 06:52:48;;;;;;;68.22;36.83;;;;;;;23.75;64.15;101089.06;5018359;28;119380;-71
2021/06/29 06:55:19;;;;;;;66.43;36.80;;;;;;;23.74;64.20;101081.97;5023971;28;124227;-70
2021/06/29 06:57:46;;;;;;;65.63;36.03;;;;;;;23.76;64.19;101085.38;5018685;28;124085;-70
2021/06/29 07:00:13;;;;;;;67.18;37.35;;;;;;;23.78;64.29;101082.53;5021236;28;118654;-71
2021/06/29 07:02:40;;;;;;;69.95;38.50;;;;;;;23.80;64.36;101092.22;5013844;28;118166;-71
2021/06/29 07:05:08;;;;;;;70.00;39.42;;;;;;;23.82;64.37;101087.50;5021203;28;126406;-70
2021/06/29 07:07:35;;;;;;;71.07;39.83;;;;;;;23.83;64.39;101094.63;5016653;28;123900;-70
2021/06/29 07:10:05;;;;;;;70.45;38.95;;;;;;;23.85;64.28;101095.34;5017225;28;119543;-71
2021/06/29 07:12:32;;;;;;;75.78;40.55;;;;;;;23.89;64.15;101093.19;5012006;28;119218;-70
2021/06/29 07:15:01;;;;;;;75.10;40.42;;;;;;;23.92;64.22;101089.31;5008636;28;123845;-71
2021/06/29 07:17:28;;;;;;;69.38;38.58;;;;;;;23.94;64.13;101095.44;5019460;28;124616;-70
2021/06/29 07:19:55;;;;;;;69.70;39.15;;;;;;;23.99;64.27;101095.84;5012756;28;119315;-71
2021/06/29 07:22:22;;;;;;;60.75;35.88;;;;;;;24.04;64.04;101088.13;5012745;28;119106;-70
2021/06/29 07:24:49;;;;;;;60.33;36.88;;;;;;;24.05;63.83;101085.28;5026411;28;124009;-70
2021/06/29 07:27:17;;;;;;;56.67;34.55;;;;;;;24.08;63.83;101084.09;5012280;28;122935;-70
2021/06/29 07:29:44;;;;;;;57.15;34.83;;;;;;;24.09;63.58;101080.38;5023079;28;120149;-70
2021/06/29 07:32:11;;;;;;;61.35;35.15;;;;;;;24.12;63.59;101085.50;5027838;28;120066;-70
2021/06/29 07:34:38;;;;;;;63.97;36.50;;;;;;;24.17;63.54;101083.19;5017312;28;123858;-70
2021/06/29 07:37:06;;;;;;;60.78;36.35;;;;;;;24.22;63.31;101091.72;5018876;28;124460;-72
2021/06/29 07:39:33;;;;;;;63.90;37.50;;;;;;;24.25;63.12;101090.56;5027248;28;119548;-71
2021/06/29 07:42:01;;;;;;;66.00;37.75;;;;;;;24.26;63.37;101086.81;5024101;28;119320;-72
2021/06/29 07:44:28;;;;;;;64.30;36.95;;;;;;;24.28;63.09;101080.28;5017553;28;124477;-70
2021/06/29 07:46:57;;;;;;;66.40;38.10;;;;;;;24.32;63.44;101085.38;5013315;28;124520;-70
2021/06/29 07:49:27;;;;;;;67.20;38.70;;;;;;;24.34;63.39;101091.50;5017670;28;119830;-71
2021/06/29 07:51:54;;;;;;;72.68;39.85;;;;;;;24.38;62.90;101084.78;5015054;28;118378;-72
2021/06/29 07:54:21;;;;;;;71.75;40.22;;;;;;;24.41;62.79;101085.31;5009715;28;124059;-72
2021/06/29 07:56:48;;;;;;;69.63;39.22;;;;;;;24.43;62.64;101082.44;4994523;28;123861;-72
2021/06/29 07:59:16;;;;;;;78.30;41.75;;;;;;;24.48;63.04;101085.53;5010589;28;118313;-74
2021/06/29 08:01:43;;;;;;;81.05;42.60;;;;;;;24.50;62.61;101088.94;5023056;28;119963;-72
2021/06/29 08:04:10;;;;;;;78.25;41.50;;;;;;;24.57;62.88;101078.38;5019294;28;123334;-73
2021/06/29 08:06:37;;;;;;;77.68;40.50;;;;;;;24.62;62.65;101076.91;5007701;28;124797;-74
2021/06/29 08:09:04;;;;;;;78.03;41.15;;;;;;;24.67;62.52;101080.00;5020116;28;118300;-73
2021/06/29 08:11:32;;;;;;;80.40;41.63;;;;;;;24.72;62.30;101081.41;5012841;28;119293;-72
2021/06/29 08:13:59;;;;;;;76.28;41.33;;;;;;;24.75;62.00;101070.25;5019089;28;124365;-70
2021/06/29 08:16:26;;;;;;;77.85;40.92;;;;;;;24.80;62.29;101068.75;5027959;27;123717;-72
2021/06/29 08:18:53;;;;;;;79.30;42.47;;;;;;;24.88;62.17;101070.69;5038865;27;120201;-72
2021/06/29 08:21:21;;;;;;;80.88;42.38;;;;;;;24.94;61.95;101064.66;5027049;28;120070;-71
2021/06/29 08:23:48;;;;;;;80.30;42.67;;;;;;;25.00;61.75;101077.56;5028288;28;124108;-73
2021/06/29 08:26:15;;;;;;;78.90;42.03;;;;;;;25.06;62.02;101071.50;5028814;28;123637;-70
2021/06/29 08:28:42;;;;;;;84.57;43.53;;;;;;;25.14;62.04;101075.28;5021639;28;119457;-73
2021/06/29 08:31:09;;;;;;;82.68;43.35;;;;;;;25.27;62.18;101064.91;5027502;28;118815;-71
2021/06/29 08:33:37;;;;;;;76.68;41.92;;;;;;;25.43;62.10;101062.28;5026151;28;123826;-73
2021/06/29 08:36:05;;;;;;;78.75;42.28;;;;;;;25.63;61.76;101070.19;5013476;28;121841;-72
2021/06/29 08:38:32;;;;;;;74.13;41.13;;;;;;;25.78;61.69;101073.97;5001222;28;117440;-74
2021/06/29 08:40:59;;;;;;;70.18;40.45;;;;;;;25.89;60.88;101077.44;5019213;28;119710;-72
2021/06/29 08:43:27;;;;;;;75.95;41.80;;;;;;;25.92;60.12;101086.13;5015365;28;122974;-72
2021/06/29 08:45:55;;;;;;;69.95;39.60;;;;;;;25.96;59.62;101086.66;5022129;28;122926;-72
2021/06/29 08:48:22;;;;;;;66.72;38.50;;;;;;;25.99;59.75;101092.59;5023926;28;119885;-73
2021/06/29 08:50:49;;;;;;;66.80;37.70;;;;;;;26.03;59.49;101087.66;5031235;28;119200;-74
2021/06/29 08:53:17;;;;;;;73.13;40.83;;;;;;;26.09;59.57;101087.03;5030550;28;124662;-72
2021/06/29 08:55:47;;;;;;;67.57;39.10;;;;;;;26.16;59.50;101090.81;5024358;28;124342;-73
2021/06/29 08:58:20;;;;;;;70.15;38.67;;;;;;;26.26;59.19;101082.50;5018874;28;119218;-73
2021/06/29 09:00:49;;;;;;;64.03;37.92;;;;;;;26.31;58.73;101080.13;5022671;28;117813;-73
2021/06/29 09:03:16;;;;;;;62.55;36.78;;;;;;;26.33;59.16;101079.97;5016952;28;124012;-71
2021/06/29 09:05:50;;;;;;;67.25;37.78;;;;;;;26.37;58.63;101089.47;5022727;28;124672;-72
2021/06/29 09:08:19;;;;;;;62.55;37.38;;;;;;;26.38;58.12;101086.59;5014554;28;120295;-73
2021/06/29 09:11:13;;;;;;;62.60;35.88;;;;;;;26.35;57.97;101097.81;5015926;28;119222;-73
2021/06/29 09:13:42;;;;;;;57.28;32.88;;;;;;;26.30;57.54;101105.59;5016447;28;124990;-73
2021/06/29 09:16:10;;;;;;;56.70;33.97;;;;;;;26.28;57.55;101101.34;5013146;28;123244;-74
2021/06/29 09:18:41;;;;;;;59.40;35.40;;;;;;;26.26;57.42;101087.06;4995529;28;119074;-73
2021/06/29 09:21:11;;;;;;;57.88;34.30;;;;;;;26.25;57.53;101090.81;5014029;28;118843;-73
2021/06/29 09:23:48;;;;;;;61.15;36.40;;;;;;;26.23;57.20;101083.66;5021899;28;124319;-73
2021/06/29 09:26:23;;;;;;;61.42;34.90;;;;;;;26.27;57.74;101088.78;5019708;28;122808;-73
2021/06/29 09:28:55;;;;;;;;;;;;;;;26.30;58.17;101085.75;5007374;28;119304;-73
2021/06/29 09:31:45;;;;;;;55.15;32.40;;;;;;;26.38;57.59;101085.75;5023467;28;119037;-73
2021/06/29 09:34:12;;;;;;;61.28;33.58;;;;;;;26.39;57.35;101079.28;5032658;27;124251;-73
2021/06/29 09:36:42;;;;;;;54.55;32.40;;;;;;;26.40;57.05;101089.13;5024673;27;123069;-74
2021/06/29 09:39:17;;;;;;;54.42;32.53;;;;;;;26.40;57.29;101081.00;5003993;28;118647;-72
2021/06/29 09:41:47;;;;;;;54.00;32.90;;;;;;;26.44;57.39;101079.63;5008633;28;117408;-72
2021/06/29 09:44:19;;;;;;;55.05;33.17;;;;;;;26.50;56.85;101084.38;5022678;28;124713;-72
2021/06/29 09:46:46;;;;;;;57.50;34.78;;;;;;;26.60;56.85;101079.69;5026111;28;124093;-73
2021/06/29 09:49:16;;;;;;;57.63;34.13;;;;;;;26.66;56.59;101078.16;5026958;28;118998;-73
2021/06/29 09:51:50;;;;;;;53.63;32.38;;;;;;;26.74;56.54;101080.03;5027372;28;118673;-73
2021/06/29 09:54:18;;;;;;;56.63;32.85;;;;;;;26.81;56.21;101083.78;5024524;28;124782;-73
2021/06/29 09:56:46;;;;;;;53.40;31.67;;;;;;;26.85;56.41;101090.56;4996633;28;123000;-73
2021/06/29 09:59:21;;;;;;;53.92;32.00;;;;;;;26.88;55.70;101090.25;5023635;28;121070;-73
2021/06/29 10:01:48;;;;;;;55.58;32.03;;;;;;;26.89;55.91;101100.09;5039790;27;120467;-73
2021/06/29 10:04:16;;;;;;;57.30;34.72;;;;;;;26.94;55.81;101086.84;5016737;28;123616;-71
2021/06/29 10:06:46;;;;;;;58.97;34.60;;;;;;;27.02;55.98;101087.84;5014544;28;122938;-72
2021/06/29 10:09:16;;;;;;;52.53;31.00;;;;;;;27.11;55.40;101097.72;5025331;28;119720;-73
2021/06/29 10:11:47;;;;;;;49.50;30.00;;;;;;;27.13;55.20;101095.66;5020105;28;119438;-73
2021/06/29 10:14:16;;;;;;;46.47;29.15;;;;;;;27.18;55.27;101096.84;5015950;28;124083;-72
2021/06/29 10:16:53;;;;;;;51.08;29.85;;;;;;;27.25;55.07;101096.16;5022107;28;124611;-76
2021/06/29 10:22:00;;;;;;;44.38;27.38;;;;;;;27.40;54.50;101086.28;5023253;28;117799;-73
2021/06/29 10:24:31;;;;;;;47.95;28.65;;;;;;;27.47;54.79;101091.91;5021358;28;124171;-74
2021/06/29 10:27:00;;;;;;;48.67;28.95;;;;;;;27.54;54.32;101103.78;5024823;28;123631;-76
2021/06/29 10:29:30;;;;;;;47.65;28.65;;;;;;;27.60;53.93;101100.34;5021097;28;119041;-75
2021/06/29 10:32:09;;;;;;;45.80;28.35;;;;;;;27.67;53.58;101092.31;5012424;28;118439;-76
2021/06/29 10:34:38;;;;;;;50.20;29.25;;;;;;;27.70;53.47;101092.00;5023309;28;123234;-76
2021/06/29 10:37:06;;;;;;;47.03;28.90;;;;;;;27.69;53.56;101096.59;5021730;27;124221;-77
2021/06/29 10:39:36;;;;;;;47.83;29.00;;;;;;;27.68;53.50;101089.44;5021282;28;118722;-77
2021/06/29 10:42:14;;;;;;;49.40;29.38;;;;;;;27.63;53.57;101091.81;5002624;28;118263;-76
2021/06/29 10:44:46;;;;;;;48.95;29.65;;;;;;;27.59;53.06;101085.03;5027510;28;123163;-74
2021/06/29 10:47:29;;;;;;;49.03;29.58;;;;;;;27.49;53.42;101095.28;5013790;28;124890;-75
2021/06/29 10:49:58;;;;;;;48.22;30.02;;;;;;;27.45;53.34;101093.94;5017398;28;119622;-76
2021/06/29 10:52:26;;;;;;;52.53;32.13;;;;;;;27.41;53.54;101093.44;5017084;28;118961;-76
2021/06/29 10:54:57;;;;;;;53.55;31.30;;;;;;;27.45;53.95;101083.06;5018345;28;125576;-77
2021/06/29 10:57:44;;;;;;;52.67;30.83;;;;;;;27.52;54.26;101078.59;5011524;28;123431;-74
2021/06/29 11:00:20;;;;;;;50.47;29.83;;;;;;;27.61;53.49;101077.53;5016579;28;118968;-76
2021/06/29 11:02:56;;;;;;;50.92;29.50;;;;;;;27.66;53.55;101064.28;5014747;28;119522;-75
2021/06/29 11:05:26;;;;;;;43.75;27.73;;;;;;;27.76;53.81;101073.09;5017272;28;123801;-77
2021/06/29 11:08:28;;;;;;;44.72;27.45;;;;;;;27.86;53.75;101069.28;4997628;28;122077;-75
2021/06/29 11:11:08;;;;;;;42.20;26.95;;;;;;;27.99;53.31;101063.31;5003152;28;118921;-76
2021/06/29 11:13:47;;;;;;;39.92;25.20;;;;;;;28.07;52.86;101066.84;5008871;28;119099;-76